sensor_id;sensor_type;location;lat;lon;timestamp;pressure;altitude;pressure_sealevel;temperature;humidity
50394;BME280;36308;46.312;25.288;2023-02-19T00:03:56;95765.78;;;5.63;81.09
50394;BME280;36308;46.312;25.288;2023-02-19T00:06:23;95775.28;;;5.71;81.12
50394;BME280;36308;46.312;25.288;2023-02-19T00:08:49;95777.00;;;5.77;81.09
50394;BME280;36308;46.312;25.288;2023-02-19T00:11:20;95774.47;;;5.82;81.09
50394;BME280;36308;46.312;25.288;2023-02-19T00:13:48;95774.69;;;5.92;80.91
50394;BME280;36308;46.312;25.288;2023-02-19T00:16:19;95790.25;;;5.95;80.72
50394;BME280;36308;46.312;25.288;2023-02-19T00:18:45;95779.47;;;6.02;80.40
50394;BME280;36308;46.312;25.288;2023-02-19T00:21:11;95767.84;;;6.08;80.41
50394;BME280;36308;46.312;25.288;2023-02-19T00:23:37;95768.66;;;6.09;80.36
50394;BME280;36308;46.312;25.288;2023-02-19T00:26:05;95781.28;;;6.13;80.11
50394;BME280;36308;46.312;25.288;2023-02-19T00:28:30;95770.84;;;6.12;79.90
50394;BME280;36308;46.312;25.288;2023-02-19T00:31:05;95780.00;;;6.16;79.91
50394;BME280;36308;46.312;25.288;2023-02-19T00:33:31;95777.44;;;6.21;79.23
50394;BME280;36308;46.312;25.288;2023-02-19T00:36:01;95780.13;;;6.21;79.77
50394;BME280;36308;46.312;25.288;2023-02-19T00:38:27;95786.84;;;6.23;79.40
50394;BME280;36308;46.312;25.288;2023-02-19T00:40:53;95781.84;;;6.27;79.08
50394;BME280;36308;46.312;25.288;2023-02-19T00:43:18;95779.19;;;6.27;79.15
50394;BME280;36308;46.312;25.288;2023-02-19T00:45:44;95777.88;;;6.30;79.03
50394;BME280;36308;46.312;25.288;2023-02-19T00:48:09;95772.31;;;6.31;79.05
50394;BME280;36308;46.312;25.288;2023-02-19T00:50:35;95754.56;;;6.25;79.06
50394;BME280;36308;46.312;25.288;2023-02-19T00:53:00;95756.38;;;6.36;78.67
50394;BME280;36308;46.312;25.288;2023-02-19T00:55:26;95745.81;;;6.41;79.03
50394;BME280;36308;46.312;25.288;2023-02-19T00:57:51;95739.19;;;6.44;78.57
50394;BME280;36308;46.312;25.288;2023-02-19T01:00:17;95736.97;;;6.41;78.37
50394;BME280;36308;46.312;25.288;2023-02-19T01:02:42;95751.81;;;6.48;78.42
50394;BME280;36308;46.312;25.288;2023-02-19T01:05:08;95736.94;;;6.53;78.09
50394;BME280;36308;46.312;25.288;2023-02-19T01:07:36;95723.41;;;6.42;77.83
50394;BME280;36308;46.312;25.288;2023-02-19T01:10:03;95745.84;;;6.58;77.88
50394;BME280;36308;46.312;25.288;2023-02-19T01:12:29;95733.88;;;6.61;77.26
50394;BME280;36308;46.312;25.288;2023-02-19T01:14:56;95701.00;;;6.43;77.34
50394;BME280;36308;46.312;25.288;2023-02-19T01:17:21;95733.38;;;6.64;77.04
50394;BME280;36308;46.312;25.288;2023-02-19T01:19:47;95724.34;;;6.65;77.08
50394;BME280;36308;46.312;25.288;2023-02-19T01:22:12;95737.19;;;6.68;76.51
50394;BME280;36308;46.312;25.288;2023-02-19T01:24:38;95730.81;;;6.69;76.43
50394;BME280;36308;46.312;25.288;2023-02-19T01:27:03;95736.16;;;6.69;76.41
50394;BME280;36308;46.312;25.288;2023-02-19T01:29:29;95738.34;;;6.72;75.83
50394;BME280;36308;46.312;25.288;2023-02-19T01:31:54;95733.00;;;6.72;75.99
50394;BME280;36308;46.312;25.288;2023-02-19T01:34:20;95738.44;;;6.77;75.76
50394;BME280;36308;46.312;25.288;2023-02-19T01:36:45;95734.63;;;6.73;76.14
50394;BME280;36308;46.312;25.288;2023-02-19T01:39:11;95726.28;;;6.70;75.75
50394;BME280;36308;46.312;25.288;2023-02-19T01:41:38;95718.66;;;6.61;75.50
50394;BME280;36308;46.312;25.288;2023-02-19T01:46:53;95741.84;;;6.73;75.72
50394;BME280;36308;46.312;25.288;2023-02-19T01:49:40;95741.00;;;6.72;75.53
50394;BME280;36308;46.312;25.288;2023-02-19T01:52:49;95744.53;;;6.73;75.13
50394;BME280;36308;46.312;25.288;2023-02-19T01:55:10;95747.41;;;6.71;75.07
50394;BME280;36308;46.312;25.288;2023-02-19T01:57:41;95751.97;;;6.71;74.65
50394;BME280;36308;46.312;25.288;2023-02-19T02:00:11;95752.19;;;6.69;74.65
50394;BME280;36308;46.312;25.288;2023-02-19T02:02:38;95754.28;;;6.67;75.08
50394;BME280;36308;46.312;25.288;2023-02-19T02:05:09;95766.59;;;6.68;74.73
50394;BME280;36308;46.312;25.288;2023-02-19T02:07:35;95770.91;;;6.69;74.66
50394;BME280;36308;46.312;25.288;2023-02-19T02:10:19;95758.56;;;6.68;74.80
50394;BME280;36308;46.312;25.288;2023-02-19T02:12:50;95753.63;;;6.60;74.81
50394;BME280;36308;46.312;25.288;2023-02-19T02:15:16;95775.16;;;6.70;74.66
50394;BME280;36308;46.312;25.288;2023-02-19T02:26:08;95792.16;;;6.64;74.56
50394;BME280;36308;46.312;25.288;2023-02-19T02:29:13;95798.34;;;6.64;74.42
50394;BME280;36308;46.312;25.288;2023-02-19T02:31:40;95808.19;;;6.64;74.06
50394;BME280;36308;46.312;25.288;2023-02-19T02:34:17;95800.88;;;6.59;74.48
50394;BME280;36308;46.312;25.288;2023-02-19T02:36:46;95819.81;;;6.58;74.42
50394;BME280;36308;46.312;25.288;2023-02-19T02:39:16;95820.31;;;6.55;74.56
50394;BME280;36308;46.312;25.288;2023-02-19T02:41:47;95824.50;;;6.51;74.85
50394;BME280;36308;46.312;25.288;2023-02-19T02:44:34;95826.03;;;6.46;74.95
50394;BME280;36308;46.312;25.288;2023-02-19T02:47:03;95827.53;;;6.42;74.36
50394;BME280;36308;46.312;25.288;2023-02-19T02:49:30;95837.88;;;6.39;74.95
50394;BME280;36308;46.312;25.288;2023-02-19T02:51:58;95830.56;;;6.34;74.80
50394;BME280;36308;46.312;25.288;2023-02-19T02:54:45;95829.91;;;6.27;75.30
50394;BME280;36308;46.312;25.288;2023-02-19T02:57:29;95846.50;;;6.29;75.50
50394;BME280;36308;46.312;25.288;2023-02-19T02:59:55;95831.28;;;6.18;75.10
50394;BME280;36308;46.312;25.288;2023-02-19T03:02:25;95845.00;;;6.21;75.47
50394;BME280;36308;46.312;25.288;2023-02-19T03:04:54;95855.19;;;6.24;75.37
50394;BME280;36308;46.312;25.288;2023-02-19T03:10:12;95873.56;;;6.21;75.44
50394;BME280;36308;46.312;25.288;2023-02-19T03:12:39;95875.75;;;6.24;75.70
50394;BME280;36308;46.312;25.288;2023-02-19T03:15:35;95883.41;;;6.20;75.75
50394;BME280;36308;46.312;25.288;2023-02-19T03:18:22;95890.72;;;6.25;75.44
50394;BME280;36308;46.312;25.288;2023-02-19T03:21:24;95900.94;;;6.28;75.41
50394;BME280;36308;46.312;25.288;2023-02-19T03:23:52;95893.72;;;6.28;75.47
50394;BME280;36308;46.312;25.288;2023-02-19T03:26:37;95900.47;;;6.31;75.60
50394;BME280;36308;46.312;25.288;2023-02-19T03:29:05;95892.34;;;6.26;75.48
50394;BME280;36308;46.312;25.288;2023-02-19T03:31:59;95912.91;;;6.37;75.70
50394;BME280;36308;46.312;25.288;2023-02-19T03:34:33;95908.59;;;6.36;75.81
50394;BME280;36308;46.312;25.288;2023-02-19T03:37:09;95920.44;;;6.40;75.67
50394;BME280;36308;46.312;25.288;2023-02-19T03:39:35;95915.09;;;6.40;75.34
50394;BME280;36308;46.312;25.288;2023-02-19T03:44:49;95925.91;;;6.45;75.08
50394;BME280;36308;46.312;25.288;2023-02-19T03:47:32;95925.31;;;6.43;74.86
50394;BME280;36308;46.312;25.288;2023-02-19T03:50:14;95931.22;;;6.45;74.44
50394;BME280;36308;46.312;25.288;2023-02-19T03:56:31;95949.44;;;6.48;74.47
50394;BME280;36308;46.312;25.288;2023-02-19T03:58:34;95944.09;;;6.48;74.56
50394;BME280;36308;46.312;25.288;2023-02-19T04:01:12;95940.63;;;6.48;74.62
50394;BME280;36308;46.312;25.288;2023-02-19T04:03:46;95942.00;;;6.51;74.40
50394;BME280;36308;46.312;25.288;2023-02-19T04:06:22;95933.41;;;6.48;74.55
50394;BME280;36308;46.312;25.288;2023-02-19T04:08:52;95926.00;;;6.39;74.24
50394;BME280;36308;46.312;25.288;2023-02-19T04:11:20;95923.56;;;6.37;73.96
50394;BME280;36308;46.312;25.288;2023-02-19T04:13:57;95941.66;;;6.47;74.36
50394;BME280;36308;46.312;25.288;2023-02-19T04:16:27;95951.53;;;6.46;74.23
50394;BME280;36308;46.312;25.288;2023-02-19T04:18:58;95954.22;;;6.46;74.36
50394;BME280;36308;46.312;25.288;2023-02-19T04:21:24;95954.78;;;6.48;74.43
50394;BME280;36308;46.312;25.288;2023-02-19T04:23:50;95965.03;;;6.52;74.23
50394;BME280;36308;46.312;25.288;2023-02-19T04:26:17;95958.63;;;6.53;73.93
50394;BME280;36308;46.312;25.288;2023-02-19T04:28:45;95971.16;;;6.52;73.56
50394;BME280;36308;46.312;25.288;2023-02-19T04:31:11;95958.84;;;6.51;73.82
50394;BME280;36308;46.312;25.288;2023-02-19T04:33:36;95949.56;;;6.42;74.20
50394;BME280;36308;46.312;25.288;2023-02-19T04:36:02;95934.13;;;6.32;73.84
50394;BME280;36308;46.312;25.288;2023-02-19T04:38:28;95963.59;;;6.49;73.36
50394;BME280;36308;46.312;25.288;2023-02-19T04:40:53;95957.47;;;6.48;73.32
50394;BME280;36308;46.312;25.288;2023-02-19T04:43:19;95954.78;;;6.48;73.66
50394;BME280;36308;46.312;25.288;2023-02-19T04:45:45;95939.03;;;6.35;73.82
50394;BME280;36308;46.312;25.288;2023-02-19T04:48:10;95937.38;;;6.34;73.96
50394;BME280;36308;46.312;25.288;2023-02-19T04:50:39;95957.38;;;6.43;73.74
50394;BME280;36308;46.312;25.288;2023-02-19T04:53:06;95952.81;;;6.44;73.88
50394;BME280;36308;46.312;25.288;2023-02-19T04:55:35;95946.69;;;6.43;73.74
50394;BME280;36308;46.312;25.288;2023-02-19T04:58:01;95954.91;;;6.42;73.32
50394;BME280;36308;46.312;25.288;2023-02-19T05:00:26;95950.97;;;6.44;73.79
50394;BME280;36308;46.312;25.288;2023-02-19T05:02:52;95957.38;;;6.43;73.69
50394;BME280;36308;46.312;25.288;2023-02-19T05:05:17;95951.53;;;6.46;73.56
50394;BME280;36308;46.312;25.288;2023-02-19T05:07:43;95947.00;;;6.47;73.66
50394;BME280;36308;46.312;25.288;2023-02-19T05:10:08;95946.19;;;6.46;73.58
50394;BME280;36308;46.312;25.288;2023-02-19T05:12:34;95939.25;;;6.45;73.17
50394;BME280;36308;46.312;25.288;2023-02-19T05:14:59;95933.31;;;6.43;72.99
50394;BME280;36308;46.312;25.288;2023-02-19T05:17:25;95939.81;;;6.47;73.36
50394;BME280;36308;46.312;25.288;2023-02-19T05:19:50;95936.56;;;6.45;73.18
50394;BME280;36308;46.312;25.288;2023-02-19T05:22:16;95929.38;;;6.46;73.30
50394;BME280;36308;46.312;25.288;2023-02-19T05:24:42;95933.91;;;6.45;73.26
50394;BME280;36308;46.312;25.288;2023-02-19T05:27:07;95946.19;;;6.46;73.25
50394;BME280;36308;46.312;25.288;2023-02-19T05:29:33;95950.38;;;6.42;73.37
50394;BME280;36308;46.312;25.288;2023-02-19T05:31:58;95941.78;;;6.40;73.51
50394;BME280;36308;46.312;25.288;2023-02-19T05:34:24;95945.84;;;6.43;73.28
50394;BME280;36308;46.312;25.288;2023-02-19T05:36:49;95950.59;;;6.41;73.52
50394;BME280;36308;46.312;25.288;2023-02-19T05:39:15;95953.53;;;6.39;73.06
50394;BME280;36308;46.312;25.288;2023-02-19T05:41:40;95946.69;;;6.43;72.92
50394;BME280;36308;46.312;25.288;2023-02-19T05:44:06;95918.09;;;6.32;73.07
50394;BME280;36308;46.312;25.288;2023-02-19T05:46:31;95927.50;;;6.35;72.96
50394;BME280;36308;46.312;25.288;2023-02-19T05:48:57;95940.50;;;6.43;73.25
50394;BME280;36308;46.312;25.288;2023-02-19T05:51:24;95948.78;;;6.41;72.94
50394;BME280;36308;46.312;25.288;2023-02-19T05:53:50;95946.69;;;6.43;73.11
50394;BME280;36308;46.312;25.288;2023-02-19T05:58:53;95932.84;;;6.35;73.22
50394;BME280;36308;46.312;25.288;2023-02-19T06:01:21;95946.69;;;6.43;73.13
50394;BME280;36308;46.312;25.288;2023-02-19T06:03:46;95922.66;;;6.32;72.86
50394;BME280;36308;46.312;25.288;2023-02-19T06:06:13;95939.69;;;6.42;73.11
50394;BME280;36308;46.312;25.288;2023-02-19T06:08:39;95938.09;;;6.41;73.38
50394;BME280;36308;46.312;25.288;2023-02-19T06:11:05;95927.41;;;6.41;73.01
50394;BME280;36308;46.312;25.288;2023-02-19T06:13:30;95925.75;;;6.40;73.53
50394;BME280;36308;46.312;25.288;2023-02-19T06:15:56;95930.06;;;6.41;73.49
50394;BME280;36308;46.312;25.288;2023-02-19T06:18:21;95920.44;;;6.40;72.86
50394;BME280;36308;46.312;25.288;2023-02-19T06:20:47;95922.88;;;6.42;73.28
50394;BME280;36308;46.312;25.288;2023-02-19T06:23:13;95915.88;;;6.41;73.51
50394;BME280;36308;46.312;25.288;2023-02-19T06:25:38;95927.41;;;6.41;73.40
50394;BME280;36308;46.312;25.288;2023-02-19T06:28:04;95931.09;;;6.40;73.54
50394;BME280;36308;46.312;25.288;2023-02-19T06:30:30;95924.97;;;6.40;73.08
50394;BME280;36308;46.312;25.288;2023-02-19T06:32:55;95937.25;;;6.41;73.28
50394;BME280;36308;46.312;25.288;2023-02-19T06:35:21;95933.19;;;6.38;72.99
50394;BME280;36308;46.312;25.288;2023-02-19T06:37:47;95939.34;;;6.39;73.18
50394;BME280;36308;46.312;25.288;2023-02-19T06:40:13;95939.34;;;6.39;73.38
50394;BME280;36308;46.312;25.288;2023-02-19T06:42:38;95936.94;;;6.37;73.16
50394;BME280;36308;46.312;25.288;2023-02-19T06:45:04;95935.28;;;6.36;73.34
50394;BME280;36308;46.312;25.288;2023-02-19T06:47:31;95938.53;;;6.38;73.46
50394;BME280;36308;46.312;25.288;2023-02-19T06:49:57;95933.19;;;6.38;73.40
50394;BME280;36308;46.312;25.288;2023-02-19T06:52:22;95914.06;;;6.30;73.53
50394;BME280;36308;46.312;25.288;2023-02-19T06:54:48;95932.75;;;6.41;73.52
50394;BME280;36308;46.312;25.288;2023-02-19T06:57:13;95909.88;;;6.34;73.14
50394;BME280;36308;46.312;25.288;2023-02-19T06:59:39;95929.59;;;6.44;73.53
50394;BME280;36308;46.312;25.288;2023-02-19T07:02:04;95922.16;;;6.46;73.24
50394;BME280;36308;46.312;25.288;2023-02-19T07:04:30;95921.13;;;6.47;73.33
50394;BME280;36308;46.312;25.288;2023-02-19T07:06:55;95926.47;;;6.47;72.94
50394;BME280;36308;46.312;25.288;2023-02-19T07:09:21;95930.19;;;6.46;73.21
50394;BME280;36308;46.312;25.288;2023-02-19T07:11:49;95931.22;;;6.45;72.81
50394;BME280;36308;46.312;25.288;2023-02-19T07:14:15;95930.19;;;6.46;73.38
50394;BME280;36308;46.312;25.288;2023-02-19T07:16:41;95920.78;;;6.44;73.08
50394;BME280;36308;46.312;25.288;2023-02-19T07:19:08;95919.13;;;6.43;73.01
50394;BME280;36308;46.312;25.288;2023-02-19T07:21:34;95928.44;;;6.40;73.39
50394;BME280;36308;46.312;25.288;2023-02-19T07:24:02;95919.97;;;6.43;72.85
50394;BME280;36308;46.312;25.288;2023-02-19T07:26:28;95924.47;;;6.43;73.11
50394;BME280;36308;46.312;25.288;2023-02-19T07:28:54;95925.53;;;6.42;73.33
50394;BME280;36308;46.312;25.288;2023-02-19T07:31:22;95924.72;;;6.41;73.27
50394;BME280;36308;46.312;25.288;2023-02-19T07:33:48;95921.22;;;6.41;73.27
50394;BME280;36308;46.312;25.288;2023-02-19T07:36:15;95922.53;;;6.38;73.01
50394;BME280;36308;46.312;25.288;2023-02-19T07:38:42;95906.50;;;6.26;73.28
50394;BME280;36308;46.312;25.288;2023-02-19T07:41:07;95931.59;;;6.37;73.23
50394;BME280;36308;46.312;25.288;2023-02-19T07:43:35;95923.44;;;6.32;73.63
50394;BME280;36308;46.312;25.288;2023-02-19T07:46:10;95928.34;;;6.35;73.35
50394;BME280;36308;46.312;25.288;2023-02-19T07:48:37;95931.09;;;6.40;73.96
50394;BME280;36308;46.312;25.288;2023-02-19T07:51:04;95911.16;;;6.31;73.49
50394;BME280;36308;46.312;25.288;2023-02-19T07:53:32;95929.59;;;6.44;73.25
50394;BME280;36308;46.312;25.288;2023-02-19T07:55:59;95927.50;;;6.46;73.40
50394;BME280;36308;46.312;25.288;2023-02-19T07:58:26;95933.41;;;6.48;73.63
50394;BME280;36308;46.312;25.288;2023-02-19T08:00:52;95918.91;;;6.44;73.51
50394;BME280;36308;46.312;25.288;2023-02-19T08:03:17;95939.91;;;6.53;73.21
50394;BME280;36308;46.312;25.288;2023-02-19T08:05:43;95941.56;;;6.54;72.84
50394;BME280;36308;46.312;25.288;2023-02-19T08:08:11;95936.53;;;6.57;73.33
50394;BME280;36308;46.312;25.288;2023-02-19T08:10:37;95942.25;;;6.61;72.89
50394;BME280;36308;46.312;25.288;2023-02-19T08:13:21;95944.19;;;6.65;72.92
50394;BME280;36308;46.312;25.288;2023-02-19T08:15:52;95931.19;;;6.57;72.68
50394;BME280;36308;46.312;25.288;2023-02-19T08:18:20;95950.69;;;6.70;72.76
50394;BME280;36308;46.312;25.288;2023-02-19T08:20:46;95947.31;;;6.74;72.97
50394;BME280;36308;46.312;25.288;2023-02-19T08:23:12;95934.06;;;6.79;72.39
50394;BME280;36308;46.312;25.288;2023-02-19T08:25:39;95932.56;;;6.83;72.75
50394;BME280;36308;46.312;25.288;2023-02-19T08:28:05;95941.72;;;6.87;72.63
50394;BME280;36308;46.312;25.288;2023-02-19T08:30:32;95939.16;;;6.93;72.64
50394;BME280;36308;46.312;25.288;2023-02-19T08:32:59;95943.09;;;7.02;72.48
50394;BME280;36308;46.312;25.288;2023-02-19T08:35:25;95928.66;;;7.03;72.49
50394;BME280;36308;46.312;25.288;2023-02-19T08:37:54;95938.97;;;7.11;72.60
50394;BME280;36308;46.312;25.288;2023-02-19T08:40:22;95926.09;;;7.08;71.93
50394;BME280;36308;46.312;25.288;2023-02-19T08:42:48;95943.50;;;7.22;71.66
50394;BME280;36308;46.312;25.288;2023-02-19T08:45:14;95947.53;;;7.25;71.16
50394;BME280;36308;46.312;25.288;2023-02-19T08:47:39;95941.25;;;7.31;71.16
50394;BME280;36308;46.312;25.288;2023-02-19T08:50:05;95934.00;;;7.32;71.49
50394;BME280;36308;46.312;25.288;2023-02-19T08:52:32;95926.69;;;7.39;70.84
50394;BME280;36308;46.312;25.288;2023-02-19T08:54:57;95927.81;;;7.43;70.39
50394;BME280;36308;46.312;25.288;2023-02-19T08:57:23;95931.03;;;7.45;70.66
50394;BME280;36308;46.312;25.288;2023-02-19T08:59:49;95943.16;;;7.47;70.84
50394;BME280;36308;46.312;25.288;2023-02-19T09:02:15;95943.94;;;7.48;70.79
50394;BME280;36308;46.312;25.288;2023-02-19T09:04:40;95924.41;;;7.47;70.51
50394;BME280;36308;46.312;25.288;2023-02-19T09:07:06;95923.13;;;7.50;70.30
50394;BME280;36308;46.312;25.288;2023-02-19T09:09:36;95890.28;;;7.38;69.86
50394;BME280;36308;46.312;25.288;2023-02-19T09:12:10;95905.53;;;7.54;70.38
50394;BME280;36308;46.312;25.288;2023-02-19T09:14:37;95899.44;;;7.59;69.83
50394;BME280;36308;46.312;25.288;2023-02-19T09:17:04;95894.91;;;7.59;69.54
50394;BME280;36308;46.312;25.288;2023-02-19T09:19:30;95912.44;;;7.67;69.68
50394;BME280;36308;46.312;25.288;2023-02-19T09:21:56;95912.78;;;7.71;69.50
50394;BME280;36308;46.312;25.288;2023-02-19T09:24:21;95919.25;;;7.75;69.02
50394;BME280;36308;46.312;25.288;2023-02-19T09:26:48;95915.53;;;7.76;69.46
50394;BME280;36308;46.312;25.288;2023-02-19T09:29:14;95902.47;;;7.79;69.28
50394;BME280;36308;46.312;25.288;2023-02-19T09:31:40;95912.94;;;7.81;69.64
50394;BME280;36308;46.312;25.288;2023-02-19T09:34:05;95908.72;;;7.85;69.34
50394;BME280;36308;46.312;25.288;2023-02-19T09:36:31;95891.84;;;7.67;69.11
50394;BME280;36308;46.312;25.288;2023-02-19T09:38:58;95891.44;;;7.76;69.11
50394;BME280;36308;46.312;25.288;2023-02-19T09:41:29;95906.13;;;7.90;69.37
50394;BME280;36308;46.312;25.288;2023-02-19T09:43:57;95876.13;;;7.71;68.59
50394;BME280;36308;46.312;25.288;2023-02-19T09:46:29;95891.03;;;7.84;68.85
50394;BME280;36308;46.312;25.288;2023-02-19T09:49:02;95907.34;;;7.99;68.41
50394;BME280;36308;46.312;25.288;2023-02-19T09:51:31;95907.09;;;8.01;68.07
50394;BME280;36308;46.312;25.288;2023-02-19T09:53:58;95893.47;;;8.02;68.65
50394;BME280;36308;46.312;25.288;2023-02-19T09:56:25;95896.69;;;8.04;68.14
50394;BME280;36308;46.312;25.288;2023-02-19T09:58:53;95901.59;;;8.07;68.31
50394;BME280;36308;46.312;25.288;2023-02-19T10:01:23;95909.13;;;8.10;67.74
50394;BME280;36308;46.312;25.288;2023-02-19T10:03:51;95902.16;;;8.09;67.81
50394;BME280;36308;46.312;25.288;2023-02-19T10:06:24;95892.00;;;8.12;68.21
50394;BME280;36308;46.312;25.288;2023-02-19T10:08:54;95894.97;;;8.15;68.20
50394;BME280;36308;46.312;25.288;2023-02-19T10:11:21;95886.94;;;8.15;67.88
50394;BME280;36308;46.312;25.288;2023-02-19T10:14:00;95886.09;;;8.09;68.11
50394;BME280;36308;46.312;25.288;2023-02-19T10:16:28;95901.75;;;8.18;68.03
50394;BME280;36308;46.312;25.288;2023-02-19T10:18:54;95899.63;;;8.20;68.16
50394;BME280;36308;46.312;25.288;2023-02-19T10:21:23;95892.16;;;8.22;68.03
50394;BME280;36308;46.312;25.288;2023-02-19T10:23:54;95888.97;;;8.25;67.66
50394;BME280;36308;46.312;25.288;2023-02-19T10:26:22;95886.63;;;8.28;67.81
50394;BME280;36308;46.312;25.288;2023-02-19T10:28:48;95870.84;;;8.32;67.73
50394;BME280;36308;46.312;25.288;2023-02-19T10:31:19;95870.31;;;8.30;67.42
50394;BME280;36308;46.312;25.288;2023-02-19T10:33:52;95875.72;;;8.35;67.74
50394;BME280;36308;46.312;25.288;2023-02-19T10:36:39;95867.19;;;8.38;67.17
50394;BME280;36308;46.312;25.288;2023-02-19T10:39:29;95882.22;;;8.39;66.87
50394;BME280;36308;46.312;25.288;2023-02-19T10:42:01;95887.56;;;8.39;67.87
50394;BME280;36308;46.312;25.288;2023-02-19T10:44:28;95873.97;;;8.41;67.49
50394;BME280;36308;46.312;25.288;2023-02-19T10:46:56;95877.44;;;8.41;67.14
50394;BME280;36308;46.312;25.288;2023-02-19T10:51:53;95862.38;;;8.40;67.59
50394;BME280;36308;46.312;25.288;2023-02-19T10:54:33;95862.75;;;8.44;67.44
50394;BME280;36308;46.312;25.288;2023-02-19T10:57:27;95851.22;;;8.43;66.86
50394;BME280;36308;46.312;25.288;2023-02-19T11:00:19;95841.63;;;8.47;67.25
50394;BME280;36308;46.312;25.288;2023-02-19T11:02:47;95834.16;;;8.49;67.03
50394;BME280;36308;46.312;25.288;2023-02-19T11:05:17;95828.28;;;8.53;67.44
50394;BME280;36308;46.312;25.288;2023-02-19T11:07:47;95831.03;;;8.58;66.51
50394;BME280;36308;46.312;25.288;2023-02-19T11:10:39;95828.34;;;8.58;66.52
50394;BME280;36308;46.312;25.288;2023-02-19T11:13:15;95835.88;;;8.61;66.61
50394;BME280;36308;46.312;25.288;2023-02-19T11:15:42;95831.34;;;8.61;67.05
50394;BME280;36308;46.312;25.288;2023-02-19T11:20:38;95839.13;;;8.63;66.50
50394;BME280;36308;46.312;25.288;2023-02-19T11:23:16;95837.00;;;8.65;66.06
50394;BME280;36308;46.312;25.288;2023-02-19T11:25:50;95830.59;;;8.66;66.61
50394;BME280;36308;46.312;25.288;2023-02-19T11:28:31;95831.97;;;8.68;65.64
50394;BME280;36308;46.312;25.288;2023-02-19T11:33:52;95831.19;;;8.73;64.98
50394;BME280;36308;46.312;25.288;2023-02-19T11:36:36;95826.91;;;8.72;64.91
50394;BME280;36308;46.312;25.288;2023-02-19T11:39:26;95833.88;;;8.73;64.31
50394;BME280;36308;46.312;25.288;2023-02-19T11:52:50;95821.56;;;8.72;63.69
50394;BME280;36308;46.312;25.288;2023-02-19T12:09:21;95785.28;;;8.92;63.51
50394;BME280;36308;46.312;25.288;2023-02-19T12:12:15;95767.19;;;9.04;63.66
50394;BME280;36308;46.312;25.288;2023-02-19T12:25:43;95764.69;;;9.62;61.76
50394;BME280;36308;46.312;25.288;2023-02-19T12:31:15;95761.78;;;9.63;61.85
50394;BME280;36308;46.312;25.288;2023-02-19T12:44:55;95752.09;;;9.62;60.74
50394;BME280;36308;46.312;25.288;2023-02-19T12:47:24;95765.50;;;9.62;61.20
50394;BME280;36308;46.312;25.288;2023-02-19T12:50:16;95759.00;;;9.53;61.04
50394;BME280;36308;46.312;25.288;2023-02-19T12:52:47;95766.28;;;9.58;60.81
50394;BME280;36308;46.312;25.288;2023-02-19T12:55:27;95771.41;;;9.59;61.01
50394;BME280;36308;46.312;25.288;2023-02-19T12:57:54;95779.69;;;9.58;60.61
50394;BME280;36308;46.312;25.288;2023-02-19T13:00:43;95761.63;;;9.43;61.32
50394;BME280;36308;46.312;25.288;2023-02-19T13:03:46;95768.94;;;9.53;60.58
50394;BME280;36308;46.312;25.288;2023-02-19T13:06:32;95762.66;;;9.42;61.67
50394;BME280;36308;46.312;25.288;2023-02-19T13:11:57;95776.69;;;9.49;61.32
50394;BME280;36308;46.312;25.288;2023-02-19T13:17:07;95765.41;;;9.47;61.53
50394;BME280;36308;46.312;25.288;2023-02-19T13:19:41;95758.69;;;9.44;62.38
50394;BME280;36308;46.312;25.288;2023-02-19T13:22:21;95754.13;;;9.45;62.30
50394;BME280;36308;46.312;25.288;2023-02-19T13:25:10;95759.50;;;9.45;62.85
50394;BME280;36308;46.312;25.288;2023-02-19T13:28:02;95749.56;;;9.45;62.97
50394;BME280;36308;46.312;25.288;2023-02-19T13:30:31;95752.00;;;9.47;62.77
50394;BME280;36308;46.312;25.288;2023-02-19T13:38:41;95757.84;;;9.44;62.53
50394;BME280;36308;46.312;25.288;2023-02-19T13:41:17;95757.06;;;9.43;62.46
50394;BME280;36308;46.312;25.288;2023-02-19T13:43:43;95742.75;;;9.33;62.70
50394;BME280;36308;46.312;25.288;2023-02-19T13:46:14;95736.84;;;9.30;62.78
50394;BME280;36308;46.312;25.288;2023-02-19T13:48:41;95746.00;;;9.40;62.51
50394;BME280;36308;46.312;25.288;2023-02-19T14:14:42;95734.63;;;9.22;62.83
50394;BME280;36308;46.312;25.288;2023-02-19T14:19:49;95716.53;;;9.07;63.60
50394;BME280;36308;46.312;25.288;2023-02-19T14:27:43;95734.22;;;9.08;64.43
50394;BME280;36308;46.312;25.288;2023-02-19T14:30:11;95732.06;;;9.05;64.80
50394;BME280;36308;46.312;25.288;2023-02-19T14:32:39;95735.25;;;9.02;65.30
50394;BME280;36308;46.312;25.288;2023-02-19T14:35:05;95726.66;;;9.00;64.95
50394;BME280;36308;46.312;25.288;2023-02-19T14:37:31;95724.75;;;8.96;64.97
50394;BME280;36308;46.312;25.288;2023-02-19T14:39:57;95733.88;;;8.95;65.44
50394;BME280;36308;46.312;25.288;2023-02-19T14:42:24;95719.25;;;8.80;65.57
50394;BME280;36308;46.312;25.288;2023-02-19T14:44:59;95729.50;;;8.88;66.39
50394;BME280;36308;46.312;25.288;2023-02-19T14:47:27;95742.38;;;8.86;65.90
50394;BME280;36308;46.312;25.288;2023-02-19T14:50:04;95744.75;;;8.83;65.98
50394;BME280;36308;46.312;25.288;2023-02-19T14:52:47;95740.94;;;8.79;66.22
50394;BME280;36308;46.312;25.288;2023-02-19T14:55:29;95759.94;;;8.77;66.50
50394;BME280;36308;46.312;25.288;2023-02-19T14:58:03;95748.63;;;8.70;66.97
50394;BME280;36308;46.312;25.288;2023-02-19T15:00:36;95750.75;;;8.68;66.52
50394;BME280;36308;46.312;25.288;2023-02-19T15:03:03;95719.50;;;8.52;67.23
50394;BME280;36308;46.312;25.288;2023-02-19T15:05:34;95742.09;;;8.61;66.95
50394;BME280;36308;46.312;25.288;2023-02-19T15:08:06;95736.69;;;8.56;67.86
50394;BME280;36308;46.312;25.288;2023-02-19T15:10:34;95745.78;;;8.55;67.19
50394;BME280;36308;46.312;25.288;2023-02-19T15:13:05;95758.63;;;8.53;67.91
50394;BME280;36308;46.312;25.288;2023-02-19T15:15:35;95740.81;;;8.41;67.73
50394;BME280;36308;46.312;25.288;2023-02-19T15:18:03;95751.84;;;8.45;68.04
50394;BME280;36308;46.312;25.288;2023-02-19T15:20:34;95760.13;;;8.43;68.25